createdAt,value
2019-02-25T00:03:59.157Z,41.60
2019-02-25T00:08:11.863Z,42.40
2019-02-25T00:12:13.239Z,42.40
2019-02-25T00:16:25.930Z,42.20
2019-02-25T00:20:34.799Z,41.80
2019-02-25T00:24:40.034Z,42.10
2019-02-25T00:28:46.013Z,42.20
2019-02-25T00:32:57.768Z,41.10
2019-02-25T00:37:03.673Z,39.40
2019-02-25T00:41:11.829Z,40.40
2019-02-25T00:45:17.842Z,39.00
2019-02-25T00:49:21.996Z,38.50
2019-02-25T00:53:32.614Z,40.60
2019-02-25T00:57:38.205Z,41.60
2019-02-25T01:01:42.969Z,38.80
2019-02-25T01:05:54.130Z,39.30
2019-02-25T01:10:02.144Z,38.30
2019-02-25T01:14:07.284Z,39.90
2019-02-25T01:18:10.998Z,42.50
2019-02-25T01:22:16.593Z,43.40
2019-02-25T01:26:22.525Z,44.70
2019-02-25T01:30:27.709Z,45.40
2019-02-25T01:34:33.253Z,45.00
2019-02-25T01:38:40.151Z,45.00
2019-02-25T01:42:45.665Z,44.90
2019-02-25T01:46:49.387Z,45.00
2019-02-25T01:50:55.193Z,45.20
2019-02-25T01:55:01.832Z,45.90
2019-02-25T01:59:05.459Z,46.50
2019-02-25T02:03:10.937Z,46.50
2019-02-25T02:07:18.372Z,46.00
2019-02-25T02:11:25.173Z,45.90
2019-02-25T02:15:28.912Z,44.40
2019-02-25T02:19:40.645Z,44.40
2019-02-25T02:23:46.374Z,44.90
2019-02-25T02:27:50.105Z,45.40
2019-02-25T02:31:53.952Z,45.20
2019-02-25T02:36:04.580Z,45.90
2019-02-25T02:40:11.991Z,46.10
2019-02-25T02:44:22.365Z,46.50
2019-02-25T02:48:38.352Z,46.00
2019-02-25T02:52:46.364Z,45.10
2019-02-25T02:56:52.031Z,44.10
2019-02-25T03:00:56.863Z,44.70
2019-02-25T03:05:02.581Z,45.30
2019-02-25T03:09:11.210Z,45.90
2019-02-25T03:13:16.618Z,46.20
2019-02-25T03:17:23.727Z,44.90
2019-02-25T03:21:30.912Z,44.90
2019-02-25T03:25:37.784Z,43.90
2019-02-25T03:29:43.341Z,43.20
2019-02-25T03:33:46.966Z,43.50
2019-02-25T03:37:51.873Z,43.00
2019-02-25T03:41:55.715Z,43.60
2019-02-25T03:46:01.312Z,42.80
2019-02-25T03:50:06.086Z,42.70
2019-02-25T03:54:09.726Z,43.40
2019-02-25T03:58:15.371Z,43.60
2019-02-25T04:02:24.067Z,43.60
2019-02-25T04:06:27.923Z,44.60
2019-02-25T04:10:31.707Z,43.80
2019-02-25T04:14:36.066Z,44.60
2019-02-25T04:18:39.209Z,43.50
2019-02-25T04:22:42.281Z,43.70
2019-02-25T04:26:45.307Z,43.90
2019-02-25T04:30:48.352Z,44.00
2019-02-25T04:34:51.414Z,44.30
2019-02-25T04:38:54.472Z,44.10
2019-02-25T04:42:57.614Z,44.20
2019-02-25T04:47:00.673Z,44.90
2019-02-25T04:51:03.720Z,45.20
2019-02-25T04:55:08.819Z,46.00
2019-02-25T04:59:11.855Z,46.70
2019-02-25T05:03:14.904Z,47.00
2019-02-25T05:07:18.267Z,47.80
2019-02-25T05:11:23.225Z,48.40
2019-02-25T05:15:28.745Z,48.60
2019-02-25T05:19:32.126Z,48.80
2019-02-25T05:23:35.189Z,49.90
2019-02-25T05:27:38.219Z,50.10
2019-02-25T05:31:41.362Z,50.10
2019-02-25T05:35:44.516Z,49.50
2019-02-25T05:39:47.602Z,48.70
2019-02-25T05:43:50.703Z,49.10
2019-02-25T05:47:53.808Z,48.80
2019-02-25T05:51:56.862Z,49.10
2019-02-25T05:55:59.922Z,49.00
2019-02-25T06:00:06.787Z,49.20
2019-02-25T06:04:09.895Z,49.70
2019-02-25T06:08:13.045Z,49.00
2019-02-25T06:12:16.090Z,48.50
2019-02-25T06:16:20.773Z,48.20
2019-02-25T06:20:23.831Z,48.80
2019-02-25T06:24:26.927Z,48.80
2019-02-25T06:28:29.989Z,48.50
2019-02-25T06:32:33.064Z,48.80
2019-02-25T06:36:36.146Z,48.50
2019-02-25T06:40:39.234Z,47.80
2019-02-25T06:44:42.274Z,48.50
2019-02-25T06:48:45.323Z,48.70
2019-02-25T06:52:48.426Z,48.70
2019-02-25T06:56:51.468Z,48.20
2019-02-25T07:00:54.515Z,48.80
2019-02-25T07:04:59.453Z,49.00
2019-02-25T07:09:05.303Z,48.40
2019-02-25T07:13:10.225Z,48.30
2019-02-25T07:17:32.977Z,48.50
2019-02-25T07:21:46.678Z,48.00
2019-02-25T07:25:54.131Z,47.60
2019-02-25T07:29:59.072Z,45.10
2019-02-25T07:34:19.087Z,43.20
2019-02-25T07:38:39.846Z,41.70
2019-02-25T07:42:45.117Z,40.80
2019-02-25T07:46:50.077Z,39.20
2019-02-25T07:50:57.719Z,36.70
2019-02-25T07:55:14.714Z,35.30
2019-02-25T07:59:31.969Z,34.80
2019-02-25T08:03:39.924Z,37.10
2019-02-25T08:08:01.314Z,34.00
2019-02-25T08:12:12.042Z,34.30
2019-02-25T08:16:29.077Z,33.80
2019-02-25T08:20:36.651Z,33.80
2019-02-25T08:24:47.763Z,31.90
2019-02-25T08:29:01.866Z,31.60
2019-02-25T08:33:13.240Z,35.00
2019-02-25T08:37:27.801Z,30.00
2019-02-25T08:41:33.085Z,29.80
2019-02-25T08:45:38.107Z,29.10
2019-02-25T08:49:43.078Z,27.80
2019-02-25T08:53:46.197Z,26.80
2019-02-25T08:57:49.576Z,26.60
2019-02-25T09:01:52.697Z,25.60
2019-02-25T09:05:55.773Z,25.50
2019-02-25T09:09:58.818Z,26.10
2019-02-25T09:14:01.867Z,25.50
2019-02-25T09:18:04.719Z,25.80
2019-02-25T09:22:08.786Z,24.80
2019-02-25T09:26:12.006Z,25.10
2019-02-25T09:30:16.529Z,23.70
2019-02-25T09:34:19.680Z,23.10
2019-02-25T09:38:23.627Z,21.30
2019-02-25T09:42:26.850Z,20.30
2019-02-25T09:46:29.891Z,21.70
2019-02-25T09:50:32.925Z,22.00
2019-02-25T09:54:35.958Z,21.30
2019-02-25T09:58:39.007Z,19.00
2019-02-25T10:02:42.042Z,20.60
2019-02-25T10:06:45.169Z,21.40
2019-02-25T10:10:48.213Z,20.50
2019-02-25T10:14:51.269Z,21.20
2019-02-25T10:18:54.353Z,17.80
2019-02-25T10:22:58.549Z,18.00
2019-02-25T10:27:01.609Z,17.70
2019-02-25T10:31:04.644Z,18.50
2019-02-25T10:35:13.495Z,19.70
2019-02-25T10:39:17.926Z,19.80
2019-02-25T10:43:21.665Z,19.00
2019-02-25T10:47:24.727Z,17.70
2019-02-25T10:51:27.768Z,16.80
2019-02-25T10:55:47.296Z,17.70
2019-02-25T10:59:51.622Z,16.70
2019-02-25T11:03:54.656Z,17.80
2019-02-25T11:07:58.297Z,18.60
2019-02-25T11:12:01.467Z,17.70
2019-02-25T11:16:04.805Z,18.20
2019-02-25T11:20:12.284Z,17.60
2019-02-25T11:24:18.261Z,18.30
2019-02-25T11:28:25.575Z,19.00
2019-02-25T11:32:27.958Z,19.00
2019-02-25T11:36:31.298Z,18.70
2019-02-25T11:40:36.540Z,19.50
2019-02-25T11:44:39.367Z,18.70
2019-02-25T11:48:42.406Z,19.30
2019-02-25T11:52:45.528Z,19.00
2019-02-25T11:56:48.568Z,18.80
2019-02-25T12:00:51.620Z,36.00
2019-02-25T12:04:54.651Z,28.70
2019-02-25T12:08:57.824Z,28.90
2019-02-25T12:13:00.875Z,19.00
2019-02-25T12:17:03.904Z,23.20
2019-02-25T12:21:07.013Z,22.50
2019-02-25T12:25:13.161Z,18.60
2019-02-25T12:29:16.281Z,18.30
2019-02-25T12:33:19.349Z,18.50
2019-02-25T12:37:22.400Z,20.10
2019-02-25T12:41:27.241Z,18.90
2019-02-25T12:45:30.524Z,20.50
2019-02-25T12:49:33.582Z,20.70
2019-02-25T12:53:37.856Z,20.60
2019-02-25T12:57:41.112Z,19.90
2019-02-25T13:01:44.188Z,20.30
2019-02-25T13:05:47.218Z,21.20
2019-02-25T13:09:50.355Z,21.20
2019-02-25T13:13:53.406Z,21.30
2019-02-25T13:17:56.457Z,21.20
2019-02-25T13:21:59.551Z,21.30
2019-02-25T13:26:07.454Z,21.40
2019-02-25T13:30:12.133Z,20.80
2019-02-25T13:34:15.300Z,20.90
2019-02-25T13:38:18.341Z,20.70
2019-02-25T13:42:21.501Z,20.30
2019-02-25T13:46:24.675Z,20.20
2019-02-25T13:50:28.118Z,20.00
2019-02-25T13:54:31.445Z,20.60
2019-02-25T13:58:34.604Z,20.10
2019-02-25T14:02:37.828Z,33.00
2019-02-25T14:06:40.977Z,26.10
2019-02-25T14:10:44.235Z,24.80
2019-02-25T14:14:47.713Z,20.90
2019-02-25T14:18:50.878Z,22.00
2019-02-25T14:22:54.028Z,22.80
2019-02-25T14:26:58.590Z,20.60
2019-02-25T14:31:01.596Z,21.90
2019-02-25T14:35:07.874Z,20.60
2019-02-25T14:39:24.894Z,20.40
2019-02-25T14:43:25.441Z,20.50
2019-02-25T14:47:34.773Z,20.80
2019-02-25T14:51:35.291Z,20.50
2019-02-25T14:55:40.706Z,21.70
2019-02-25T14:59:43.451Z,21.10
2019-02-25T15:03:46.452Z,21.60
2019-02-25T15:07:50.845Z,21.50
2019-02-25T15:11:55.905Z,21.10
2019-02-25T15:15:59.652Z,21.40
2019-02-25T15:20:06.070Z,21.60
2019-02-25T15:24:10.474Z,21.70
2019-02-25T15:28:16.154Z,21.20
2019-02-25T15:32:19.650Z,21.50
2019-02-25T15:36:24.842Z,21.70
2019-02-25T15:40:31.756Z,21.90
2019-02-25T15:44:40.334Z,22.40
2019-02-25T15:48:44.091Z,22.20
2019-02-25T15:52:50.934Z,22.60
2019-02-25T15:56:54.000Z,22.50
2019-02-25T16:00:57.178Z,23.00
2019-02-25T16:05:00.983Z,22.60
2019-02-25T16:09:05.781Z,22.30
2019-02-25T16:13:12.266Z,22.70
2019-02-25T16:17:13.974Z,22.80
2019-02-25T16:21:16.982Z,23.10
2019-02-25T16:25:22.962Z,23.00
2019-02-25T16:29:26.543Z,23.20
2019-02-25T16:33:30.804Z,23.20
2019-02-25T16:37:35.559Z,23.70
2019-02-25T16:41:39.346Z,23.50
2019-02-25T16:45:45.287Z,24.00
2019-02-25T16:49:50.334Z,24.60
2019-02-25T16:53:54.033Z,25.10
2019-02-25T16:57:58.935Z,25.30
2019-02-25T17:02:02.827Z,25.60
2019-02-25T17:06:08.636Z,25.60
2019-02-25T17:10:16.691Z,27.30
2019-02-25T17:14:21.701Z,29.00
2019-02-25T17:18:24.915Z,28.00
2019-02-25T17:22:29.882Z,27.70
2019-02-25T17:26:34.080Z,30.00
2019-02-25T17:30:38.539Z,28.10
2019-02-25T17:34:43.791Z,28.50
2019-02-25T17:38:47.595Z,28.80
2019-02-25T17:42:53.756Z,29.10
2019-02-25T17:46:57.928Z,29.40
2019-02-25T17:51:03.385Z,29.90
2019-02-25T17:55:12.274Z,29.80
2019-02-25T17:59:15.378Z,30.00
2019-02-25T18:03:19.531Z,30.80
2019-02-25T18:07:23.275Z,30.50
2019-02-25T18:11:26.367Z,30.60
2019-02-25T18:15:32.319Z,31.20
2019-02-25T18:19:35.922Z,31.90
2019-02-25T18:23:39.002Z,33.50
2019-02-25T18:27:43.997Z,34.50
2019-02-25T18:31:49.118Z,35.80
2019-02-25T18:35:52.604Z,35.70
2019-02-25T18:39:56.533Z,35.40
2019-02-25T18:43:59.695Z,36.30
2019-02-25T18:48:02.850Z,37.20
2019-02-25T18:52:06.064Z,37.70
2019-02-25T18:56:11.672Z,38.00
2019-02-25T19:00:28.390Z,38.50
2019-02-25T19:04:31.683Z,39.10
2019-02-25T19:08:34.887Z,39.00
2019-02-25T19:12:39.570Z,38.80
2019-02-25T19:16:44.146Z,38.90
2019-02-25T19:20:48.268Z,39.60
2019-02-25T19:24:51.576Z,39.40
2019-02-25T19:28:56.832Z,39.50
2019-02-25T19:33:10.900Z,39.60
2019-02-25T19:37:09.313Z,39.90
2019-02-25T19:41:15.269Z,40.10
2019-02-25T19:45:19.220Z,40.20
2019-02-25T19:49:22.418Z,40.20
2019-02-25T19:53:25.679Z,39.50
2019-02-25T19:57:30.684Z,39.70
2019-02-25T20:01:35.806Z,40.20
2019-02-25T20:05:43.304Z,40.00
2019-02-25T20:09:43.874Z,40.40
2019-02-25T20:13:46.939Z,39.60
2019-02-25T20:17:51.138Z,39.60
2019-02-25T20:21:56.776Z,40.00
2019-02-25T20:25:59.929Z,40.20
2019-02-25T20:30:09.202Z,40.80
2019-02-25T20:34:16.579Z,41.30
2019-02-25T20:38:18.084Z,41.60
2019-02-25T20:42:22.313Z,41.70
2019-02-25T20:46:26.314Z,42.70
2019-02-25T20:50:30.997Z,43.70
2019-02-25T20:54:37.884Z,44.00
2019-02-25T20:58:40.178Z,44.60
2019-02-25T21:02:43.881Z,44.80
2019-02-25T21:06:46.858Z,45.20
2019-02-25T21:10:49.968Z,45.10
2019-02-25T21:14:52.966Z,45.00
2019-02-25T21:18:55.983Z,45.10
2019-02-25T21:23:03.563Z,45.40
2019-02-25T21:27:05.866Z,45.90
2019-02-25T21:31:13.601Z,45.90
2019-02-25T21:35:15.279Z,46.00
2019-02-25T21:39:19.161Z,45.80
2019-02-25T21:43:24.129Z,46.20
2019-02-25T21:47:28.782Z,46.10
2019-02-25T21:51:34.556Z,46.10
2019-02-25T21:55:37.046Z,46.50
2019-02-25T21:59:41.054Z,46.80
2019-02-25T22:03:48.038Z,46.40
2019-02-25T22:07:52.359Z,46.40
2019-02-25T22:11:54.052Z,46.30
2019-02-25T22:15:58.974Z,46.40
2019-02-25T22:20:04.818Z,47.00
2019-02-25T22:24:09.601Z,47.40
2019-02-25T22:28:12.773Z,48.10
2019-02-25T22:32:15.783Z,47.80
2019-02-25T22:36:19.039Z,48.00
2019-02-25T22:40:22.025Z,48.20
2019-02-25T22:44:26.851Z,48.40
2019-02-25T22:48:29.975Z,48.40
2019-02-25T22:52:33.551Z,49.20
2019-02-25T22:56:37.952Z,49.30
2019-02-25T23:00:45.691Z,48.60
2019-02-25T23:04:49.619Z,48.60
2019-02-25T23:08:55.549Z,48.40
2019-02-25T23:12:58.466Z,48.50
2019-02-25T23:17:04.584Z,49.20
2019-02-25T23:21:06.431Z,49.70
2019-02-25T23:25:10.626Z,49.10
2019-02-25T23:29:15.067Z,49.20
2019-02-25T23:33:21.301Z,50.10
2019-02-25T23:37:25.792Z,52.50
2019-02-25T23:41:31.914Z,53.60
2019-02-25T23:45:35.607Z,53.20
2019-02-25T23:49:38.974Z,53.40
2019-02-25T23:53:43.526Z,54.00
2019-02-25T23:57:46.540Z,52.70
